createdAt,value
2024-03-02T00:02:44.733Z,22.98
2024-03-02T00:05:22.771Z,23.00
2024-03-02T00:10:58.007Z,24.08
2024-03-02T00:13:31.092Z,26.63
2024-03-02T00:16:01.430Z,16.77
2024-03-02T00:21:39.207Z,21.67
2024-03-02T00:27:26.270Z,19.83
2024-03-02T00:29:53.240Z,21.23
2024-03-02T00:32:20.001Z,22.23
2024-03-02T00:34:57.928Z,19.17
2024-03-02T00:37:30.473Z,24.48
2024-03-02T00:40:05.478Z,24.23
2024-03-02T00:45:39.873Z,24.58
2024-03-02T00:48:12.023Z,26.02
2024-03-02T00:50:38.735Z,24.83
2024-03-02T00:53:05.444Z,23.98
2024-03-02T00:55:48.597Z,22.45
2024-03-02T00:58:15.296Z,20.10
2024-03-02T01:03:22.671Z,25.00
2024-03-02T01:05:52.500Z,28.40
2024-03-02T01:08:21.764Z,25.45
2024-03-02T01:11:22.494Z,24.13
2024-03-02T01:13:53.608Z,26.02
2024-03-02T01:16:32.503Z,26.88
2024-03-02T01:19:02.498Z,26.52
2024-03-02T01:21:41.313Z,26.17
2024-03-02T01:24:07.971Z,28.00
2024-03-02T01:26:45.999Z,23.67
2024-03-02T01:29:12.731Z,23.15
2024-03-02T01:31:46.174Z,22.58
2024-03-02T01:34:17.506Z,23.35
2024-03-02T01:36:45.123Z,23.17
2024-03-02T01:39:14.588Z,24.77
2024-03-02T01:44:25.227Z,25.25
2024-03-02T01:47:02.415Z,31.75
2024-03-02T01:49:35.389Z,23.77
2024-03-02T01:52:34.347Z,24.50
2024-03-02T01:55:03.506Z,28.70
2024-03-02T01:57:56.209Z,23.20
2024-03-02T02:00:33.723Z,23.52
2024-03-02T02:03:07.730Z,23.20
2024-03-02T02:05:43.685Z,25.35
2024-03-02T02:08:16.037Z,23.88
2024-03-02T02:10:47.984Z,23.15
2024-03-02T02:15:42.638Z,30.25
2024-03-02T02:18:25.877Z,23.55
2024-03-02T02:20:52.493Z,30.25
2024-03-02T02:23:38.515Z,27.33
2024-03-02T02:26:43.175Z,30.50
2024-03-02T02:29:00.981Z,31.45
2024-03-02T02:31:59.799Z,26.90
2024-03-02T02:34:40.670Z,24.15
2024-03-02T02:37:13.214Z,21.45
2024-03-02T02:39:52.211Z,28.40
2024-03-02T02:42:28.175Z,24.88
2024-03-02T02:44:57.934Z,27.95
2024-03-02T02:47:30.953Z,24.30
2024-03-02T02:50:12.211Z,27.88
2024-03-02T02:52:41.191Z,27.70
2024-03-02T02:55:09.982Z,27.90
2024-03-02T02:57:48.436Z,20.63
2024-03-02T03:00:21.401Z,29.15
2024-03-02T03:02:51.568Z,27.95
2024-03-02T03:05:22.183Z,29.60
2024-03-02T03:07:54.733Z,27.15
2024-03-02T03:10:23.357Z,25.25
2024-03-02T03:12:52.942Z,25.83
2024-03-02T03:15:30.846Z,25.95
2024-03-02T03:17:57.571Z,24.08
2024-03-02T03:20:24.716Z,27.17
2024-03-02T03:22:51.325Z,24.27
2024-03-02T03:25:33.903Z,24.83
2024-03-02T03:28:04.410Z,28.55
2024-03-02T03:30:34.945Z,23.38
2024-03-02T03:33:05.509Z,22.35
2024-03-02T03:35:50.339Z,25.30
2024-03-02T03:41:06.945Z,28.83
2024-03-02T03:43:33.596Z,23.73
2024-03-02T03:46:01.873Z,27.40
2024-03-02T03:48:32.058Z,27.35
2024-03-02T03:50:59.151Z,26.20
2024-03-02T03:53:25.894Z,23.77
2024-03-02T03:55:52.582Z,23.08
2024-03-02T03:58:25.833Z,26.85
2024-03-02T04:01:00.123Z,27.42
2024-03-02T04:03:26.873Z,24.35
2024-03-02T04:05:53.899Z,24.23
2024-03-02T04:08:23.673Z,24.70
2024-03-02T04:11:05.944Z,26.00
2024-03-02T04:13:41.388Z,27.20
2024-03-02T04:16:08.016Z,24.60
2024-03-02T04:18:37.839Z,25.05
2024-03-02T04:21:07.298Z,26.67
2024-03-02T04:23:49.390Z,23.27
2024-03-02T04:26:37.891Z,30.90
2024-03-02T04:31:45.543Z,31.80
2024-03-02T04:34:12.186Z,28.75
2024-03-02T04:36:38.865Z,24.75
2024-03-02T04:39:10.971Z,24.30
2024-03-02T04:44:18.019Z,25.27
2024-03-02T04:46:45.065Z,25.17
2024-03-02T04:49:14.528Z,24.52
2024-03-02T04:51:44.557Z,23.38
2024-03-02T04:54:11.222Z,28.25
2024-03-02T04:56:55.827Z,24.40
2024-03-02T04:59:47.084Z,25.48
2024-03-02T05:02:23.860Z,22.97
2024-03-02T05:05:00.256Z,23.70
2024-03-02T05:10:07.943Z,28.10
2024-03-02T05:15:37.598Z,27.73
2024-03-02T05:18:16.658Z,24.52
2024-03-02T05:20:58.452Z,24.58
2024-03-02T05:23:25.692Z,22.77
2024-03-02T05:25:57.804Z,25.58
2024-03-02T05:28:24.491Z,29.95
2024-03-02T05:30:57.334Z,26.88
2024-03-02T05:33:36.386Z,23.75
2024-03-02T05:36:05.994Z,22.92
2024-03-02T05:38:36.033Z,21.63
2024-03-02T05:41:03.165Z,26.25
2024-03-02T05:43:35.554Z,22.02
2024-03-02T05:46:02.508Z,25.13
2024-03-02T05:48:29.286Z,20.75
2024-03-02T05:50:58.233Z,20.23
2024-03-02T05:53:24.845Z,20.63
2024-03-02T05:55:56.205Z,28.38
2024-03-02T05:58:44.457Z,22.83
2024-03-02T06:01:11.184Z,28.77
2024-03-02T06:03:37.843Z,30.25
2024-03-02T06:06:04.786Z,24.42
2024-03-02T06:08:37.507Z,32.63
2024-03-02T06:11:04.322Z,25.50
2024-03-02T06:13:31.264Z,24.67
2024-03-02T06:16:08.523Z,22.58
2024-03-02T06:18:35.701Z,29.17
2024-03-02T06:21:17.552Z,26.40
2024-03-02T06:23:53.142Z,28.33
2024-03-02T06:26:31.803Z,25.48
2024-03-02T06:29:13.265Z,29.52
2024-03-02T06:31:50.047Z,23.35
2024-03-02T06:34:20.694Z,25.00
2024-03-02T06:36:50.515Z,24.23
2024-03-02T06:39:23.590Z,27.80
2024-03-02T06:42:12.972Z,30.58
2024-03-02T06:44:39.558Z,27.25
2024-03-02T06:47:09.038Z,27.42
2024-03-02T06:49:38.489Z,25.65
2024-03-02T06:52:08.267Z,29.13
2024-03-02T06:54:38.012Z,23.92
2024-03-02T06:57:13.678Z,26.55
2024-03-02T06:59:40.433Z,23.52
2024-03-02T07:02:16.658Z,25.38
2024-03-02T07:04:43.516Z,23.50
2024-03-02T07:07:11.709Z,23.88
2024-03-02T07:09:39.033Z,30.77
2024-03-02T07:12:17.634Z,24.25
2024-03-02T07:17:56.139Z,26.38
2024-03-02T07:20:32.255Z,22.58
2024-03-02T07:22:59.077Z,28.15
2024-03-02T07:27:57.220Z,27.98
2024-03-02T07:30:28.997Z,27.98
2024-03-02T07:33:00.489Z,23.10
2024-03-02T07:35:35.472Z,19.52
2024-03-02T07:38:02.862Z,22.88
2024-03-02T07:40:29.692Z,22.45
2024-03-02T07:42:58.254Z,23.55
2024-03-02T07:45:25.097Z,24.23
2024-03-02T07:48:07.447Z,25.85
2024-03-02T07:50:42.582Z,24.30
2024-03-02T07:53:14.078Z,24.05
2024-03-02T07:55:50.830Z,26.00
2024-03-02T07:58:31.759Z,28.88
2024-03-02T08:01:01.063Z,24.42
2024-03-02T08:03:30.855Z,22.98
2024-03-02T08:05:59.278Z,26.45
2024-03-02T08:08:26.508Z,25.70
2024-03-02T08:10:53.215Z,25.45
2024-03-02T08:13:22.609Z,24.77
2024-03-02T08:16:09.926Z,23.88
2024-03-02T08:18:36.956Z,26.73
2024-03-02T08:21:04.028Z,28.92
2024-03-02T08:23:34.068Z,27.50
2024-03-02T08:26:10.051Z,31.13
2024-03-02T08:28:45.969Z,24.60
2024-03-02T08:31:15.346Z,27.63
2024-03-02T08:33:45.589Z,22.73
2024-03-02T08:36:16.454Z,25.00
2024-03-02T08:38:43.264Z,22.60
2024-03-02T08:43:51.034Z,21.23
2024-03-02T08:46:17.871Z,22.08
2024-03-02T08:48:50.690Z,18.23
2024-03-02T08:51:27.862Z,17.05
2024-03-02T08:53:54.748Z,21.10
2024-03-02T08:56:32.143Z,20.73
2024-03-02T08:58:59.189Z,22.60
2024-03-02T09:01:43.136Z,24.58
2024-03-02T09:04:15.952Z,21.45
2024-03-02T09:06:46.515Z,18.35
2024-03-02T09:09:13.399Z,20.48
2024-03-02T09:11:40.206Z,18.70
2024-03-02T09:14:10.912Z,19.15
2024-03-02T09:17:07.640Z,20.65
2024-03-02T09:19:40.877Z,20.80
2024-03-02T09:22:28.618Z,19.15
2024-03-02T09:25:01.792Z,21.25
2024-03-02T09:27:29.840Z,21.17
2024-03-02T09:29:56.925Z,21.77
2024-03-02T09:32:41.461Z,20.95
2024-03-02T09:35:14.407Z,20.27
2024-03-02T09:37:43.249Z,21.80
2024-03-02T09:40:10.788Z,22.92
2024-03-02T09:42:47.084Z,21.70
2024-03-02T09:45:18.447Z,20.88
2024-03-02T09:47:48.405Z,19.00
2024-03-02T09:50:15.735Z,24.05
2024-03-02T09:52:58.938Z,24.67
2024-03-02T09:55:31.256Z,21.20
2024-03-02T09:58:02.088Z,20.75
2024-03-02T10:00:35.324Z,20.10
2024-03-02T10:03:14.952Z,17.45
2024-03-02T10:05:46.072Z,16.42
2024-03-02T10:08:15.182Z,17.80
2024-03-02T10:10:45.269Z,18.90
2024-03-02T10:13:15.283Z,16.38
2024-03-02T10:15:46.355Z,14.15
2024-03-02T10:18:45.716Z,18.25
2024-03-02T10:21:16.330Z,16.77
2024-03-02T10:23:47.161Z,17.33
2024-03-02T10:26:33.004Z,18.08
2024-03-02T10:29:03.530Z,16.58
2024-03-02T10:31:33.621Z,14.45
2024-03-02T10:34:04.482Z,12.98
2024-03-02T10:36:39.061Z,16.00
2024-03-02T10:39:07.662Z,14.00
2024-03-02T10:41:36.766Z,14.90
2024-03-02T10:44:08.669Z,15.15
2024-03-02T10:49:08.913Z,16.10
2024-03-02T10:51:38.112Z,17.20
2024-03-02T10:54:17.405Z,14.93
2024-03-02T10:56:50.298Z,14.88
2024-03-02T10:59:42.132Z,11.57
2024-03-02T11:02:13.749Z,12.88
2024-03-02T11:04:45.703Z,17.65
2024-03-02T11:07:17.821Z,11.70
2024-03-02T11:10:02.329Z,13.30
2024-03-02T11:12:58.233Z,10.73
2024-03-02T11:15:48.572Z,13.68
2024-03-02T11:20:58.098Z,11.55
2024-03-02T11:23:37.091Z,9.35
2024-03-02T11:26:22.971Z,10.60
2024-03-02T11:28:53.229Z,14.70
2024-03-02T11:31:21.899Z,7.82
2024-03-02T11:33:51.716Z,8.48
2024-03-02T11:36:26.088Z,8.07
2024-03-02T11:39:03.396Z,8.93
2024-03-02T11:41:35.324Z,10.85
2024-03-02T11:44:05.566Z,6.90
2024-03-02T11:46:32.188Z,7.80
2024-03-02T11:49:03.568Z,8.38
2024-03-02T11:51:33.008Z,6.80
2024-03-02T11:54:07.602Z,8.05
2024-03-02T11:56:46.187Z,6.65
2024-03-02T11:59:23.298Z,6.97
2024-03-02T12:01:56.955Z,8.90
2024-03-02T12:04:27.871Z,8.38
2024-03-02T12:07:13.137Z,7.57
2024-03-02T12:09:46.978Z,5.43
2024-03-02T12:12:43.323Z,5.00
2024-03-02T12:15:13.177Z,8.55
2024-03-02T12:17:40.349Z,8.68
2024-03-02T12:20:18.868Z,5.15
2024-03-02T12:25:50.382Z,5.93
2024-03-02T12:28:17.585Z,4.53
2024-03-02T12:30:50.419Z,5.15
2024-03-02T12:33:28.852Z,5.05
2024-03-02T12:36:07.101Z,8.30
2024-03-02T12:38:34.001Z,12.75
2024-03-02T12:41:05.806Z,8.63
2024-03-02T12:46:16.697Z,5.07
2024-03-02T12:48:44.977Z,4.68
2024-03-02T12:51:12.069Z,4.45
2024-03-02T12:53:47.602Z,5.25
2024-03-02T12:56:33.194Z,6.70
2024-03-02T12:59:00.730Z,6.60
2024-03-02T13:01:31.046Z,4.75
2024-03-02T13:04:02.652Z,4.93
2024-03-02T13:06:34.958Z,5.20
2024-03-02T13:09:04.817Z,6.93
2024-03-02T13:11:34.784Z,9.30
2024-03-02T13:14:01.778Z,6.00
2024-03-02T13:16:33.274Z,8.98
2024-03-02T13:19:12.207Z,8.07
2024-03-02T13:21:44.970Z,4.68
2024-03-02T13:24:15.107Z,4.25
2024-03-02T13:26:41.918Z,4.10
2024-03-02T13:29:11.295Z,6.20
2024-03-02T13:31:37.954Z,21.50
2024-03-02T13:34:04.753Z,7.10
2024-03-02T13:36:40.819Z,4.57
2024-03-02T13:39:14.717Z,3.33
2024-03-02T13:41:53.868Z,4.70
2024-03-02T13:44:20.941Z,3.92
2024-03-02T13:46:48.294Z,4.30
2024-03-02T13:49:19.705Z,3.78
2024-03-02T13:52:01.775Z,4.78
2024-03-02T13:54:28.437Z,7.07
2024-03-02T13:56:55.194Z,4.82
2024-03-02T14:02:09.867Z,3.78
2024-03-02T14:04:40.403Z,3.77
2024-03-02T14:07:12.119Z,3.38
2024-03-02T14:09:39.182Z,5.75
2024-03-02T14:12:06.961Z,7.53
2024-03-02T14:14:34.059Z,8.15
2024-03-02T14:17:04.786Z,5.65
2024-03-02T14:19:31.980Z,7.00
2024-03-02T14:22:01.944Z,6.65
2024-03-02T14:24:31.026Z,6.72
2024-03-02T14:27:10.228Z,8.15
2024-03-02T14:29:45.191Z,7.63
2024-03-02T14:32:17.449Z,7.38
2024-03-02T14:34:45.463Z,6.80
2024-03-02T14:37:17.320Z,10.48
2024-03-02T14:42:14.917Z,7.90
2024-03-02T14:44:44.680Z,6.93
2024-03-02T14:47:11.768Z,7.30
2024-03-02T14:49:48.706Z,13.18
2024-03-02T14:52:18.760Z,6.25
2024-03-02T14:54:48.173Z,6.72
2024-03-02T14:57:17.780Z,6.15
2024-03-02T14:59:44.616Z,5.85
2024-03-02T15:02:11.362Z,8.25
2024-03-02T15:04:38.584Z,6.13
2024-03-02T15:07:08.388Z,7.07
2024-03-02T15:09:36.839Z,8.88
2024-03-02T15:12:04.293Z,5.68
2024-03-02T15:14:31.637Z,4.40
2024-03-02T15:17:01.561Z,5.65
2024-03-02T15:19:28.260Z,6.78
2024-03-02T15:21:56.750Z,5.78
2024-03-02T15:24:26.733Z,5.28
2024-03-02T15:26:53.558Z,5.53
2024-03-02T15:29:23.472Z,5.45
2024-03-02T15:34:34.551Z,7.35
2024-03-02T15:37:04.652Z,4.07
2024-03-02T15:39:44.286Z,4.18
2024-03-02T15:42:14.220Z,4.80
2024-03-02T15:45:05.719Z,4.75
2024-03-02T15:47:44.591Z,4.95
2024-03-02T15:50:15.986Z,5.65
2024-03-02T15:52:48.785Z,7.82
2024-03-02T15:55:15.682Z,4.18
2024-03-02T15:57:45.516Z,5.85
2024-03-02T16:00:18.514Z,4.82
2024-03-02T16:02:45.274Z,5.75
2024-03-02T16:05:15.750Z,6.07
2024-03-02T16:07:47.123Z,7.82
2024-03-02T16:10:35.566Z,4.47
2024-03-02T16:13:15.935Z,4.45
2024-03-02T16:15:57.564Z,8.13
2024-03-02T16:18:24.512Z,6.32
2024-03-02T16:20:51.157Z,6.07
2024-03-02T16:23:19.004Z,5.30
2024-03-02T16:25:45.543Z,4.00
2024-03-02T16:28:18.166Z,5.82
2024-03-02T16:30:55.027Z,5.75
2024-03-02T16:34:32.674Z,6.90
2024-03-02T16:37:47.790Z,5.70
2024-03-02T16:43:15.633Z,5.45
2024-03-02T16:45:42.307Z,4.97
2024-03-02T16:48:09.384Z,6.90
2024-03-02T16:50:36.259Z,3.92
2024-03-02T16:53:08.951Z,6.15
2024-03-02T16:55:43.465Z,5.85
2024-03-02T16:58:11.184Z,6.43
2024-03-02T17:03:12.919Z,8.27
2024-03-02T17:05:40.512Z,4.22
2024-03-02T17:08:10.329Z,5.80
2024-03-02T17:10:47.296Z,8.63
2024-03-02T17:13:14.051Z,7.00
2024-03-02T17:15:46.938Z,9.38
2024-03-02T17:18:16.470Z,12.35
2024-03-02T17:20:47.356Z,15.88
2024-03-02T17:23:17.563Z,7.97
2024-03-02T17:25:54.098Z,9.25
2024-03-02T17:28:33.063Z,9.55
2024-03-02T17:31:01.093Z,8.82
2024-03-02T17:33:27.822Z,11.55
2024-03-02T17:35:55.385Z,10.90
2024-03-02T17:38:34.841Z,13.73
2024-03-02T17:41:07.890Z,7.60
2024-03-02T17:43:47.958Z,14.57
2024-03-02T17:46:14.759Z,28.20
2024-03-02T17:48:44.650Z,50.45
2024-03-02T17:51:14.516Z,38.97
2024-03-02T17:53:41.319Z,65.00
2024-03-02T17:56:11.520Z,56.45
2024-03-02T17:58:44.818Z,67.93
2024-03-02T18:01:19.326Z,43.67
2024-03-02T18:03:51.100Z,24.63
2024-03-02T18:06:49.519Z,25.60
2024-03-02T18:09:16.684Z,15.13
2024-03-02T18:12:08.135Z,15.00
2024-03-02T18:14:41.202Z,22.95
2024-03-02T18:17:11.027Z,16.65
2024-03-02T18:19:37.682Z,16.48
2024-03-02T18:22:22.818Z,17.92
2024-03-02T18:25:02.083Z,19.50
2024-03-02T18:27:38.989Z,10.85
2024-03-02T18:30:29.403Z,14.02
2024-03-02T18:32:56.634Z,15.40
2024-03-02T18:35:31.879Z,17.15
2024-03-02T18:38:05.609Z,21.27
2024-03-02T18:40:32.285Z,15.25
2024-03-02T18:43:07.554Z,14.25
2024-03-02T18:45:37.498Z,19.67
2024-03-02T18:48:04.873Z,13.82
2024-03-02T18:50:31.910Z,14.43
2024-03-02T18:53:01.633Z,10.85
2024-03-02T18:55:28.507Z,12.90
2024-03-02T18:58:01.479Z,13.63
2024-03-02T19:00:32.453Z,11.00
2024-03-02T19:03:02.647Z,15.00
2024-03-02T19:05:32.539Z,11.63
2024-03-02T19:07:59.698Z,13.60
2024-03-02T19:10:36.524Z,13.15
2024-03-02T19:15:43.658Z,12.05
2024-03-02T19:18:24.950Z,13.60
2024-03-02T19:20:52.557Z,13.75
2024-03-02T19:23:25.590Z,13.93
2024-03-02T19:25:58.889Z,14.95
2024-03-02T19:28:28.581Z,14.23
2024-03-02T19:30:55.484Z,10.82
2024-03-02T19:33:25.194Z,16.08
2024-03-02T19:35:56.434Z,14.68
2024-03-02T19:41:18.773Z,17.35
2024-03-02T19:46:40.087Z,11.77
2024-03-02T19:49:29.048Z,11.10
2024-03-02T19:52:01.157Z,13.93
2024-03-02T19:54:33.359Z,15.98
2024-03-02T19:57:03.387Z,13.32
2024-03-02T19:59:30.195Z,16.10
2024-03-02T20:01:57.038Z,18.25
2024-03-02T20:05:08.019Z,11.35
2024-03-02T20:07:46.718Z,9.95
2024-03-02T20:12:58.430Z,13.93
2024-03-02T20:15:25.100Z,15.70
2024-03-02T20:18:01.505Z,11.25
2024-03-02T20:20:42.407Z,19.27
2024-03-02T20:23:09.124Z,17.52
2024-03-02T20:25:35.772Z,10.85
2024-03-02T20:28:13.247Z,14.65
2024-03-02T20:30:42.035Z,11.10
2024-03-02T20:33:08.802Z,12.60
2024-03-02T20:36:00.306Z,26.45
2024-03-02T20:38:34.495Z,21.25
2024-03-02T20:41:03.947Z,12.80
2024-03-02T20:43:30.925Z,12.73
2024-03-02T20:45:58.453Z,16.85
2024-03-02T20:51:22.641Z,10.77
2024-03-02T20:54:24.736Z,12.05
2024-03-02T20:56:53.003Z,8.73
2024-03-02T20:59:19.856Z,11.63
2024-03-02T21:01:49.647Z,13.98
2024-03-02T21:04:34.610Z,15.73
2024-03-02T21:07:01.391Z,19.70
2024-03-02T21:09:28.208Z,11.57
2024-03-02T21:11:55.047Z,14.65
2024-03-02T21:14:24.475Z,13.52
2024-03-02T21:16:51.993Z,17.88
2024-03-02T21:19:28.087Z,10.82
2024-03-02T21:21:56.364Z,7.93
2024-03-02T21:24:23.002Z,11.00
2024-03-02T21:26:50.991Z,10.90
2024-03-02T21:29:21.377Z,9.55
2024-03-02T21:32:09.216Z,8.75
2024-03-02T21:34:36.191Z,4.85
2024-03-02T21:37:12.820Z,8.60
2024-03-02T21:39:43.537Z,7.88
2024-03-02T21:42:14.075Z,7.05
2024-03-02T21:44:40.771Z,9.38
2024-03-02T21:47:10.629Z,13.00
2024-03-02T21:50:28.983Z,12.02
2024-03-02T21:53:05.128Z,8.88
2024-03-02T21:55:49.861Z,15.98
2024-03-02T21:58:37.095Z,8.57
2024-03-02T22:01:07.130Z,11.30
2024-03-02T22:03:46.570Z,9.30
2024-03-02T22:06:19.766Z,14.02
2024-03-02T22:08:46.754Z,8.25
2024-03-02T22:11:16.581Z,7.38
2024-03-02T22:13:43.272Z,15.20
2024-03-02T22:16:10.026Z,10.48
2024-03-02T22:18:37.714Z,8.25
2024-03-02T22:21:19.330Z,14.13
2024-03-02T22:23:48.513Z,8.25
2024-03-02T22:26:17.429Z,10.35
2024-03-02T22:28:49.698Z,6.60
2024-03-02T22:31:24.985Z,9.73
2024-03-02T22:33:51.610Z,6.70
2024-03-02T22:36:28.791Z,8.52
2024-03-02T22:38:55.390Z,7.22
2024-03-02T22:41:22.006Z,6.97
2024-03-02T22:46:58.733Z,10.32
2024-03-02T22:49:35.150Z,13.27
2024-03-02T22:52:01.991Z,6.57
2024-03-02T22:54:32.374Z,14.02
2024-03-02T22:57:07.411Z,14.98
2024-03-02T22:59:40.208Z,13.63
2024-03-02T23:02:10.779Z,8.02
2024-03-02T23:04:37.453Z,6.07
2024-03-02T23:07:04.336Z,10.02
2024-03-02T23:09:37.574Z,8.50
2024-03-02T23:12:04.774Z,9.40
2024-03-02T23:14:31.540Z,10.18
2024-03-02T23:17:01.253Z,10.05
2024-03-02T23:22:36.340Z,15.20
2024-03-02T23:25:03.280Z,9.63
2024-03-02T23:27:29.992Z,13.27
2024-03-02T23:29:56.610Z,10.77
2024-03-02T23:32:23.897Z,13.70
2024-03-02T23:34:59.812Z,15.48
2024-03-02T23:37:26.674Z,15.63
2024-03-02T23:40:02.426Z,13.85
2024-03-02T23:42:38.614Z,11.82
2024-03-02T23:45:05.607Z,11.98
2024-03-02T23:47:44.719Z,16.40
2024-03-02T23:50:17.073Z,14.20
2024-03-02T23:52:56.081Z,13.20
2024-03-02T23:55:24.324Z,13.38
2024-03-02T23:57:55.427Z,11.88
